createdAt,value
2019-03-20T00:00:19.320Z,410.53
2019-03-20T00:01:19.654Z,410.58
2019-03-20T00:02:19.947Z,410.53
2019-03-20T00:03:20.355Z,410.73
2019-03-20T00:04:20.588Z,410.57
2019-03-20T00:05:20.920Z,410.61
2019-03-20T00:06:21.255Z,410.70
2019-03-20T00:07:21.517Z,410.63
2019-03-20T00:08:21.879Z,410.65
2019-03-20T00:09:22.165Z,410.73
2019-03-20T00:10:22.479Z,410.72
2019-03-20T00:11:22.813Z,410.75
2019-03-20T00:12:23.086Z,416.21
2019-03-20T00:13:23.429Z,416.60
2019-03-20T00:14:23.790Z,416.69
2019-03-20T00:15:24.086Z,416.37
2019-03-20T00:16:24.394Z,416.61
2019-03-20T00:17:24.687Z,416.50
2019-03-20T00:18:25.008Z,416.56
2019-03-20T00:19:25.317Z,416.77
2019-03-20T00:20:25.648Z,416.51
2019-03-20T00:21:25.965Z,416.75
2019-03-20T00:22:26.293Z,416.51
2019-03-20T00:23:26.696Z,416.37
2019-03-20T00:24:26.903Z,416.53
2019-03-20T00:25:27.218Z,416.81
2019-03-20T00:26:27.548Z,416.49
2019-03-20T00:27:27.846Z,416.71
2019-03-20T00:28:28.193Z,416.55
2019-03-20T00:29:28.461Z,416.56
2019-03-20T00:30:28.789Z,416.48
2019-03-20T00:31:29.226Z,416.38
2019-03-20T00:32:29.412Z,416.40
2019-03-20T00:33:29.762Z,416.34
2019-03-20T00:34:30.031Z,416.62
2019-03-20T00:35:30.363Z,416.29
2019-03-20T00:36:30.692Z,416.32
2019-03-20T00:37:31.032Z,416.37
2019-03-20T00:38:31.339Z,416.52
2019-03-20T00:39:31.653Z,416.71
2019-03-20T00:40:31.904Z,416.61
2019-03-20T00:41:32.251Z,416.79
2019-03-20T00:42:32.547Z,416.70
2019-03-20T00:43:32.884Z,416.74
2019-03-20T00:44:33.178Z,416.47
2019-03-20T00:45:33.475Z,416.55
2019-03-20T00:46:33.823Z,416.49
2019-03-20T00:47:34.221Z,416.72
2019-03-20T00:48:34.692Z,416.83
2019-03-20T00:49:34.768Z,416.59
2019-03-20T00:50:35.082Z,416.50
2019-03-20T00:51:35.394Z,416.45
2019-03-20T00:52:35.695Z,416.65
2019-03-20T00:53:36.052Z,416.61
2019-03-20T00:54:36.365Z,416.56
2019-03-20T00:55:36.710Z,416.42
2019-03-20T00:56:37.024Z,416.19
2019-03-20T00:57:37.289Z,416.77
2019-03-20T00:58:39.583Z,416.73
2019-03-20T00:59:37.949Z,416.72
2019-03-20T01:00:38.251Z,416.66
2019-03-20T01:01:38.580Z,416.52
2019-03-20T01:02:38.876Z,416.59
2019-03-20T01:03:39.194Z,416.55
2019-03-20T01:04:39.658Z,416.19
2019-03-20T01:05:39.820Z,416.33
2019-03-20T01:06:40.152Z,416.37
2019-03-20T01:07:40.435Z,416.34
2019-03-20T01:08:40.760Z,416.35
2019-03-20T01:09:41.105Z,416.79
2019-03-20T01:10:41.401Z,416.66
2019-03-20T01:11:41.736Z,416.52
2019-03-20T01:12:42.147Z,416.48
2019-03-20T01:13:42.339Z,416.51
2019-03-20T01:14:42.695Z,416.50
2019-03-20T01:15:42.983Z,416.43
2019-03-20T01:16:43.314Z,416.66
2019-03-20T01:17:43.619Z,416.55
2019-03-20T01:18:43.909Z,416.48
2019-03-20T01:19:44.252Z,416.51
2019-03-20T01:20:44.601Z,416.56
2019-03-20T01:21:44.872Z,416.41
2019-03-20T01:22:45.175Z,416.52
2019-03-20T01:23:45.544Z,416.61
2019-03-20T01:24:45.827Z,416.44
2019-03-20T01:25:46.108Z,416.51
2019-03-20T01:26:46.448Z,416.54
2019-03-20T01:27:46.749Z,416.62
2019-03-20T01:28:47.095Z,416.27
2019-03-20T01:29:47.381Z,416.41
2019-03-20T01:30:47.662Z,416.49
2019-03-20T01:31:48.016Z,416.40
2019-03-20T01:32:48.316Z,416.85
2019-03-20T01:33:48.638Z,416.88
2019-03-20T01:34:48.989Z,416.70
2019-03-20T01:35:49.268Z,416.71
2019-03-20T01:36:49.614Z,416.49
2019-03-20T01:37:49.971Z,416.35
2019-03-20T01:38:50.238Z,416.44
2019-03-20T01:39:50.540Z,416.33
2019-03-20T01:40:50.844Z,416.51
2019-03-20T01:41:51.160Z,416.72
2019-03-20T01:42:51.471Z,416.68
2019-03-20T01:43:51.838Z,416.62
2019-03-20T01:44:52.135Z,416.65
2019-03-20T01:45:52.549Z,416.67
2019-03-20T01:46:52.727Z,416.67
2019-03-20T01:47:53.054Z,416.69
2019-03-20T01:48:53.373Z,416.62
2019-03-20T01:49:53.715Z,416.88
2019-03-20T01:50:54.003Z,416.55
2019-03-20T01:51:54.310Z,416.73
2019-03-20T01:52:54.618Z,416.69
2019-03-20T01:53:55.067Z,416.65
2019-03-20T01:54:55.271Z,416.49
2019-03-20T01:55:55.566Z,416.65
2019-03-20T01:56:55.877Z,416.45
2019-03-20T01:57:56.190Z,416.56
2019-03-20T01:58:56.506Z,416.70
2019-03-20T01:59:56.869Z,416.53
2019-03-20T02:00:57.155Z,416.83
2019-03-20T02:01:57.501Z,416.61
2019-03-20T02:02:57.783Z,416.55
2019-03-20T02:03:58.069Z,416.88
2019-03-20T02:04:58.425Z,416.66
2019-03-20T02:05:58.728Z,416.80
2019-03-20T02:06:59.039Z,416.60
2019-03-20T02:07:59.370Z,416.53
2019-03-20T02:08:59.673Z,416.32
2019-03-20T02:10:00.030Z,416.57
2019-03-20T02:11:00.346Z,416.56
2019-03-20T02:12:00.622Z,416.46
2019-03-20T02:13:00.948Z,416.59
2019-03-20T02:14:01.254Z,416.56
2019-03-20T02:15:01.594Z,416.82
2019-03-20T02:16:01.870Z,416.59
2019-03-20T02:17:02.192Z,416.72
2019-03-20T02:18:02.546Z,416.66
2019-03-20T02:19:02.916Z,416.72
2019-03-20T02:20:03.151Z,416.60
2019-03-20T02:21:03.435Z,416.47
2019-03-20T02:22:03.765Z,416.86
2019-03-20T02:23:04.097Z,416.80
2019-03-20T02:24:04.396Z,416.45
2019-03-20T02:25:04.736Z,416.59
2019-03-20T02:26:05.007Z,416.80
2019-03-20T02:27:05.455Z,416.92
2019-03-20T02:28:05.931Z,416.47
2019-03-20T02:29:05.994Z,416.62
2019-03-20T02:30:06.336Z,416.79
2019-03-20T02:31:06.628Z,416.60
2019-03-20T02:32:06.924Z,416.73
2019-03-20T02:33:07.270Z,416.61
2019-03-20T02:34:07.569Z,416.59
2019-03-20T02:35:07.984Z,410.55
2019-03-20T02:36:08.177Z,410.76
2019-03-20T02:37:08.499Z,410.57
2019-03-20T02:38:08.827Z,410.25
2019-03-20T02:39:09.146Z,410.68
2019-03-20T02:40:09.750Z,410.79
2019-03-20T02:41:09.779Z,410.44
2019-03-20T02:42:10.090Z,410.50
2019-03-20T02:43:10.441Z,410.64
2019-03-20T02:44:10.698Z,410.63
2019-03-20T02:45:11.060Z,410.75
2019-03-20T02:46:11.332Z,410.76
2019-03-20T02:47:11.655Z,410.54
2019-03-20T02:48:11.986Z,410.56
2019-03-20T02:49:12.278Z,410.76
2019-03-20T02:50:12.652Z,410.75
2019-03-20T02:51:12.957Z,410.90
2019-03-20T02:52:13.322Z,410.68
2019-03-20T02:53:13.562Z,410.44
2019-03-20T02:54:13.842Z,410.65
2019-03-20T02:55:14.181Z,410.80
2019-03-20T02:56:14.486Z,410.73
2019-03-20T02:57:17.241Z,410.72
2019-03-20T02:58:15.134Z,410.57
2019-03-20T02:59:15.442Z,410.55
2019-03-20T03:00:15.841Z,410.73
2019-03-20T03:01:16.073Z,410.78
2019-03-20T03:02:16.387Z,410.53
2019-03-20T03:03:16.715Z,410.47
2019-03-20T03:04:17.010Z,410.48
2019-03-20T03:05:17.321Z,410.78
2019-03-20T03:06:17.661Z,410.53
2019-03-20T03:07:17.967Z,410.61
2019-03-20T03:08:18.415Z,410.84
2019-03-20T03:09:18.582Z,410.71
2019-03-20T03:10:18.915Z,410.62
2019-03-20T03:11:19.221Z,410.65
2019-03-20T03:12:19.603Z,410.66
2019-03-20T03:13:19.852Z,410.87
2019-03-20T03:14:20.150Z,410.45
2019-03-20T03:15:20.472Z,410.54
2019-03-20T03:16:20.809Z,410.69
2019-03-20T03:17:21.083Z,410.52
2019-03-20T03:18:21.433Z,410.51
2019-03-20T03:19:21.711Z,410.58
2019-03-20T03:20:22.036Z,410.49
2019-03-20T03:21:22.356Z,410.57
2019-03-20T03:22:22.636Z,410.51
2019-03-20T03:23:22.984Z,410.86
2019-03-20T03:24:23.364Z,410.59
2019-03-20T03:25:23.609Z,410.78
2019-03-20T03:26:23.935Z,410.64
2019-03-20T03:27:24.217Z,410.74
2019-03-20T03:28:24.547Z,410.85
2019-03-20T03:29:24.864Z,410.91
2019-03-20T03:30:25.216Z,410.67
2019-03-20T03:31:25.560Z,410.83
2019-03-20T03:32:25.824Z,410.64
2019-03-20T03:33:26.467Z,410.87
2019-03-20T03:34:26.433Z,410.87
2019-03-20T03:35:26.781Z,410.97
2019-03-20T03:36:27.079Z,410.77
2019-03-20T03:37:27.396Z,410.84
2019-03-20T03:38:27.710Z,410.73
2019-03-20T03:39:27.988Z,410.85
2019-03-20T03:40:28.351Z,410.64
2019-03-20T03:41:28.751Z,410.90
2019-03-20T03:42:28.940Z,410.63
2019-03-20T03:43:29.254Z,410.92
2019-03-20T03:44:29.581Z,410.84
2019-03-20T03:45:29.921Z,410.81
2019-03-20T03:46:30.251Z,410.78
2019-03-20T03:47:30.546Z,411.00
2019-03-20T03:48:30.876Z,410.90
2019-03-20T03:49:31.264Z,410.69
2019-03-20T03:50:31.677Z,410.63
2019-03-20T03:51:31.815Z,410.96
2019-03-20T03:52:32.109Z,410.77
2019-03-20T03:53:32.459Z,410.98
2019-03-20T03:54:32.732Z,410.95
2019-03-20T03:55:33.068Z,410.72
2019-03-20T03:56:33.378Z,410.75
2019-03-20T03:57:33.730Z,410.92
2019-03-20T03:58:33.982Z,410.53
2019-03-20T03:59:34.296Z,410.77
2019-03-20T04:00:34.619Z,410.76
2019-03-20T04:01:34.919Z,410.95
2019-03-20T04:02:35.236Z,410.66
2019-03-20T04:03:35.553Z,410.79
2019-03-20T04:04:35.889Z,410.65
2019-03-20T04:05:36.244Z,410.81
2019-03-20T04:06:36.832Z,410.68
2019-03-20T04:07:36.862Z,410.87
2019-03-20T04:08:37.184Z,410.90
2019-03-20T04:09:37.574Z,410.27
2019-03-20T04:10:37.851Z,410.56
2019-03-20T04:11:38.192Z,410.93
2019-03-20T04:12:38.467Z,410.78
2019-03-20T04:13:38.781Z,410.98
2019-03-20T04:14:39.316Z,410.66
2019-03-20T04:15:39.441Z,410.78
2019-03-20T04:16:39.766Z,410.64
2019-03-20T04:17:40.023Z,410.58
2019-03-20T04:18:40.367Z,410.60
2019-03-20T04:19:40.696Z,410.92
2019-03-20T04:20:40.993Z,410.77
2019-03-20T04:21:41.335Z,410.97
2019-03-20T04:22:41.713Z,410.99
2019-03-20T04:23:41.952Z,410.99
2019-03-20T04:24:42.277Z,410.64
2019-03-20T04:25:42.575Z,410.85
2019-03-20T04:26:42.920Z,410.70
2019-03-20T04:27:43.209Z,410.84
2019-03-20T04:28:43.499Z,410.71
2019-03-20T04:29:43.840Z,410.64
2019-03-20T04:30:44.203Z,411.03
2019-03-20T04:31:44.496Z,410.91
2019-03-20T04:32:44.774Z,410.89
2019-03-20T04:33:45.089Z,410.88
2019-03-20T04:34:45.411Z,410.81
2019-03-20T04:35:45.719Z,410.77
2019-03-20T04:36:48.120Z,410.64
2019-03-20T04:37:46.352Z,410.91
2019-03-20T04:38:46.702Z,410.73
2019-03-20T04:39:46.973Z,410.58
2019-03-20T04:40:47.261Z,410.79
2019-03-20T04:41:47.631Z,410.84
2019-03-20T04:42:47.910Z,410.93
2019-03-20T04:43:48.234Z,410.79
2019-03-20T04:44:48.565Z,410.85
2019-03-20T04:45:48.858Z,410.80
2019-03-20T04:46:49.256Z,411.03
2019-03-20T04:47:49.551Z,410.79
2019-03-20T04:48:49.801Z,410.89
2019-03-20T04:49:50.133Z,410.68
2019-03-20T04:50:50.429Z,410.75
2019-03-20T04:51:50.756Z,410.85
2019-03-20T04:52:51.060Z,410.81
2019-03-20T04:53:51.389Z,410.73
2019-03-20T04:54:51.730Z,410.79
2019-03-20T04:55:52.180Z,410.82
2019-03-20T04:56:52.357Z,410.97
2019-03-20T04:57:52.644Z,410.86
2019-03-20T04:58:52.957Z,411.02
2019-03-20T04:59:53.298Z,411.11
2019-03-20T05:00:53.592Z,410.93
2019-03-20T05:01:53.949Z,410.83
2019-03-20T05:02:54.214Z,410.73
2019-03-20T05:03:54.663Z,410.96
2019-03-20T05:04:54.874Z,410.86
2019-03-20T05:05:55.179Z,410.71
2019-03-20T05:06:58.926Z,411.06
2019-03-20T05:07:55.793Z,411.07
2019-03-20T05:08:56.110Z,410.91
2019-03-20T05:09:56.454Z,411.10
2019-03-20T05:10:56.755Z,411.07
2019-03-20T05:11:57.128Z,411.15
2019-03-20T05:12:57.381Z,411.02
2019-03-20T05:13:57.687Z,410.94
2019-03-20T05:14:58.043Z,411.06
2019-03-20T05:15:58.362Z,410.89
2019-03-20T05:16:58.695Z,411.08
2019-03-20T05:17:58.993Z,411.16
2019-03-20T05:18:59.354Z,410.92
2019-03-20T05:19:59.646Z,411.07
2019-03-20T05:20:59.935Z,410.62
2019-03-20T05:22:00.266Z,411.30
2019-03-20T05:23:00.579Z,411.11
2019-03-20T05:24:00.867Z,410.83
2019-03-20T05:25:01.215Z,411.25
2019-03-20T05:26:01.485Z,411.27
2019-03-20T05:27:01.843Z,410.99
2019-03-20T05:28:02.159Z,411.09
2019-03-20T05:29:02.550Z,411.18
2019-03-20T05:30:02.774Z,411.24
2019-03-20T05:31:03.052Z,411.11
2019-03-20T05:32:03.414Z,411.38
2019-03-20T05:33:03.781Z,411.46
2019-03-20T05:34:04.013Z,411.27
2019-03-20T05:35:04.347Z,411.14
2019-03-20T05:36:04.636Z,411.12
2019-03-20T05:37:10.286Z,411.25
2019-03-20T05:38:06.287Z,411.24
2019-03-20T05:39:05.607Z,411.32
2019-03-20T05:40:05.926Z,411.26
2019-03-20T05:41:06.201Z,411.23
2019-03-20T05:42:06.554Z,411.28
2019-03-20T05:43:07.092Z,411.29
2019-03-20T05:44:07.172Z,411.40
2019-03-20T05:45:07.553Z,411.24
2019-03-20T05:46:07.793Z,411.27
2019-03-20T05:47:08.112Z,411.54
2019-03-20T05:48:08.437Z,411.37
2019-03-20T05:49:08.750Z,411.42
2019-03-20T05:50:09.084Z,411.14
2019-03-20T05:51:09.378Z,411.24
2019-03-20T05:52:09.762Z,411.38
2019-03-20T05:53:10.089Z,411.43
2019-03-20T05:54:10.304Z,411.61
2019-03-20T05:55:10.710Z,411.46
2019-03-20T05:56:10.955Z,411.56
2019-03-20T05:57:12.527Z,411.72
2019-03-20T05:58:11.598Z,411.51
2019-03-20T05:59:11.884Z,411.40
2019-03-20T06:00:12.217Z,411.42
2019-03-20T06:01:12.555Z,411.52
2019-03-20T06:02:12.929Z,411.67
2019-03-20T06:03:13.178Z,411.59
2019-03-20T06:04:13.456Z,411.80
2019-03-20T06:05:13.790Z,411.42
2019-03-20T06:06:14.105Z,411.65
2019-03-20T06:07:21.179Z,411.56
2019-03-20T06:08:15.762Z,411.60
2019-03-20T06:09:15.059Z,411.59
2019-03-20T06:10:15.678Z,411.30
2019-03-20T06:11:15.659Z,411.65
2019-03-20T06:12:15.975Z,411.67
2019-03-20T06:13:16.336Z,411.65
2019-03-20T06:14:16.598Z,411.32
2019-03-20T06:15:16.919Z,411.51
2019-03-20T06:16:17.212Z,411.61
2019-03-20T06:17:17.559Z,411.70
2019-03-20T06:18:17.987Z,411.52
2019-03-20T06:19:18.168Z,411.61
2019-03-20T06:20:18.470Z,411.46
2019-03-20T06:21:18.782Z,411.60
2019-03-20T06:22:19.123Z,411.67
2019-03-20T06:23:19.443Z,411.64
2019-03-20T06:24:19.749Z,411.58
2019-03-20T06:25:21.322Z,411.54
2019-03-20T06:26:20.396Z,411.55
2019-03-20T06:27:20.703Z,411.74
2019-03-20T06:28:21.056Z,411.80
2019-03-20T06:29:21.334Z,411.72
2019-03-20T06:30:21.643Z,411.82
2019-03-20T06:31:21.975Z,411.45
2019-03-20T06:32:22.272Z,411.83
2019-03-20T06:33:22.621Z,411.71
2019-03-20T06:34:22.951Z,411.36
2019-03-20T06:35:23.208Z,411.72
2019-03-20T06:36:23.554Z,411.74
2019-03-20T06:37:32.248Z,411.75
2019-03-20T06:38:25.184Z,411.55
2019-03-20T06:39:24.481Z,411.50
2019-03-20T06:40:24.813Z,411.71
2019-03-20T06:41:25.225Z,411.88
2019-03-20T06:42:25.471Z,411.86
2019-03-20T06:43:25.843Z,411.95
2019-03-20T06:44:26.065Z,411.96
2019-03-20T06:45:26.396Z,411.66
2019-03-20T06:46:26.711Z,411.82
2019-03-20T06:47:26.997Z,411.54
2019-03-20T06:48:27.362Z,411.95
2019-03-20T06:49:27.615Z,411.50
2019-03-20T06:50:27.957Z,411.51
2019-03-20T06:51:28.418Z,411.85
2019-03-20T06:52:28.585Z,411.62
2019-03-20T06:53:28.927Z,411.81
2019-03-20T06:54:29.187Z,411.61
2019-03-20T06:55:29.528Z,411.67
2019-03-20T06:56:29.875Z,411.77
2019-03-20T06:57:30.174Z,411.35
2019-03-20T06:58:30.538Z,411.73
2019-03-20T06:59:30.869Z,411.79
2019-03-20T07:00:31.097Z,411.77
2019-03-20T07:01:31.450Z,411.35
2019-03-20T07:02:31.746Z,411.79
2019-03-20T07:03:32.102Z,411.66
2019-03-20T07:04:32.367Z,411.58
2019-03-20T07:05:32.675Z,412.29
2019-03-20T07:06:33.021Z,411.71
2019-03-20T07:07:43.217Z,411.79
2019-03-20T07:08:34.660Z,411.70
2019-03-20T07:09:33.950Z,411.78
2019-03-20T07:10:34.268Z,411.73
2019-03-20T07:11:34.572Z,412.10
2019-03-20T07:12:34.890Z,411.87
2019-03-20T07:13:35.500Z,411.87
2019-03-20T07:14:35.529Z,411.84
2019-03-20T07:15:35.890Z,411.77
2019-03-20T07:16:36.199Z,411.98
2019-03-20T07:17:36.493Z,411.83
2019-03-20T07:18:36.853Z,411.76
2019-03-20T07:19:37.123Z,412.07
2019-03-20T07:20:37.672Z,412.02
2019-03-20T07:21:37.766Z,411.83
2019-03-20T07:22:38.057Z,411.97
2019-03-20T07:23:38.409Z,412.02
2019-03-20T07:24:38.807Z,411.90
2019-03-20T07:25:39.013Z,411.97
2019-03-20T07:26:39.349Z,411.83
2019-03-20T07:27:39.632Z,411.78
2019-03-20T07:28:39.970Z,411.73
2019-03-20T07:29:40.286Z,412.00
2019-03-20T07:30:40.596Z,412.01
2019-03-20T07:31:40.926Z,411.86
2019-03-20T07:32:41.331Z,411.99
2019-03-20T07:33:41.573Z,411.80
2019-03-20T07:34:41.873Z,411.94
2019-03-20T07:35:42.189Z,411.81
2019-03-20T07:36:42.518Z,412.02
2019-03-20T07:37:42.815Z,411.67
2019-03-20T07:38:43.147Z,411.93
2019-03-20T07:39:43.442Z,411.90
2019-03-20T07:40:43.800Z,411.79
2019-03-20T07:41:44.072Z,411.81
2019-03-20T07:42:44.373Z,411.79
2019-03-20T07:43:44.734Z,411.76
2019-03-20T07:44:45.160Z,411.76
2019-03-20T07:45:45.318Z,411.58
2019-03-20T07:46:45.669Z,411.62
2019-03-20T07:47:46.022Z,411.94
2019-03-20T07:48:46.329Z,411.85
2019-03-20T07:49:46.582Z,411.85
2019-03-20T07:50:46.881Z,411.67
2019-03-20T07:51:47.226Z,411.97
2019-03-20T07:52:47.529Z,411.59
2019-03-20T07:53:47.857Z,411.64
2019-03-20T07:54:48.178Z,411.73
2019-03-20T07:55:48.468Z,411.77
2019-03-20T07:56:48.805Z,411.87
2019-03-20T07:57:49.170Z,411.51
2019-03-20T07:58:49.448Z,411.60
2019-03-20T07:59:49.743Z,411.49
2019-03-20T08:00:50.040Z,411.62
2019-03-20T08:01:50.357Z,411.82
2019-03-20T08:02:50.668Z,411.96
2019-03-20T08:03:51.018Z,411.84
2019-03-20T08:04:51.342Z,411.81
2019-03-20T08:05:51.728Z,411.55
2019-03-20T08:06:51.952Z,411.50
2019-03-20T08:07:52.262Z,411.71
2019-03-20T08:08:52.580Z,411.58
2019-03-20T08:09:52.922Z,411.77
2019-03-20T08:10:53.209Z,411.78
2019-03-20T08:11:53.542Z,411.63
2019-03-20T08:12:53.819Z,411.75
2019-03-20T08:13:54.261Z,411.50
2019-03-20T08:14:54.467Z,411.34
2019-03-20T08:15:54.768Z,411.82
2019-03-20T08:16:55.102Z,411.74
2019-03-20T08:17:55.379Z,411.43
2019-03-20T08:18:55.714Z,411.45
2019-03-20T08:19:56.064Z,411.72
2019-03-20T08:20:56.354Z,411.46
2019-03-20T08:21:56.716Z,411.29
2019-03-20T08:22:56.966Z,411.50
2019-03-20T08:23:57.272Z,411.64
2019-03-20T08:24:57.631Z,411.58
2019-03-20T08:25:57.914Z,411.52
2019-03-20T08:26:58.246Z,411.56
2019-03-20T08:27:58.539Z,411.53
2019-03-20T08:28:58.853Z,411.47
2019-03-20T08:29:59.215Z,411.39
2019-03-20T08:30:59.503Z,411.22
2019-03-20T08:31:59.794Z,411.27
2019-03-20T08:33:00.117Z,411.36
2019-03-20T08:34:00.434Z,411.18
2019-03-20T08:35:00.777Z,411.61
2019-03-20T08:36:01.049Z,411.20
2019-03-20T08:37:02.338Z,411.50
2019-03-20T08:38:01.757Z,411.23
2019-03-20T08:39:02.111Z,411.27
2019-03-20T08:40:02.362Z,411.43
2019-03-20T08:41:02.633Z,411.48
2019-03-20T08:42:02.964Z,411.36
2019-03-20T08:43:03.296Z,411.40
2019-03-20T08:44:03.592Z,411.48
2019-03-20T08:45:03.936Z,411.18
2019-03-20T08:46:04.221Z,411.42
2019-03-20T08:47:04.627Z,411.31
2019-03-20T08:48:04.859Z,411.39
2019-03-20T08:49:05.207Z,411.36
2019-03-20T08:50:05.508Z,411.20
2019-03-20T08:51:05.770Z,411.59
2019-03-20T08:52:06.097Z,411.03
2019-03-20T08:53:06.440Z,411.26
2019-03-20T08:54:06.733Z,410.98
2019-03-20T08:55:07.124Z,410.96
2019-03-20T08:56:07.351Z,411.03
2019-03-20T08:57:07.659Z,411.33
2019-03-20T08:58:07.999Z,411.27
2019-03-20T08:59:08.298Z,411.23
2019-03-20T09:00:08.876Z,410.89
2019-03-20T09:01:08.923Z,411.08
2019-03-20T09:02:09.241Z,410.92
2019-03-20T09:03:09.608Z,410.84
2019-03-20T09:04:09.851Z,411.12
2019-03-20T09:05:10.199Z,411.16
2019-03-20T09:06:10.481Z,410.89
2019-03-20T09:07:10.796Z,410.99
2019-03-20T09:08:11.137Z,410.75
2019-03-20T09:09:11.416Z,410.75
2019-03-20T09:10:11.781Z,411.02
2019-03-20T09:11:12.127Z,410.87
2019-03-20T09:12:12.434Z,410.87
2019-03-20T09:13:12.730Z,410.60
2019-03-20T09:14:13.005Z,410.69
2019-03-20T09:15:13.365Z,410.71
2019-03-20T09:16:13.668Z,410.62
2019-03-20T09:17:13.978Z,410.76
2019-03-20T09:18:14.311Z,410.63
2019-03-20T09:19:14.616Z,410.71
2019-03-20T09:20:15.026Z,410.65
2019-03-20T09:21:15.232Z,410.58
2019-03-20T09:22:15.549Z,410.19
2019-03-20T09:23:15.882Z,410.45
2019-03-20T09:24:16.177Z,410.64
2019-03-20T09:25:16.509Z,410.38
2019-03-20T09:26:16.802Z,410.33
2019-03-20T09:27:17.139Z,410.51
2019-03-20T09:28:17.576Z,410.47
2019-03-20T09:29:18.841Z,410.30
2019-03-20T09:30:18.083Z,410.19
2019-03-20T09:31:18.391Z,410.52
2019-03-20T09:32:18.715Z,410.44
2019-03-20T09:33:19.035Z,410.39
2019-03-20T09:34:19.335Z,410.17
2019-03-20T09:35:19.681Z,410.26
2019-03-20T09:36:19.995Z,410.14
2019-03-20T09:37:20.257Z,410.43
2019-03-20T09:38:20.605Z,410.43
2019-03-20T09:39:20.895Z,410.30
2019-03-20T09:40:23.358Z,411.60
2019-03-20T09:41:21.558Z,411.02
2019-03-20T09:42:21.839Z,411.09
2019-03-20T09:43:22.186Z,410.74
2019-03-20T09:44:22.553Z,410.52
2019-03-20T09:45:22.786Z,410.66
2019-03-20T09:46:23.139Z,410.58
2019-03-20T09:47:24.199Z,410.46
2019-03-20T09:48:23.753Z,410.43
2019-03-20T09:49:24.070Z,410.54
2019-03-20T09:50:24.382Z,410.38
2019-03-20T09:51:24.721Z,409.95
2019-03-20T09:52:25.023Z,410.00
2019-03-20T09:53:25.396Z,410.22
2019-03-20T09:54:25.637Z,410.21
2019-03-20T09:55:25.950Z,410.11
2019-03-20T09:56:26.291Z,409.90
2019-03-20T09:57:26.581Z,409.99
2019-03-20T09:58:26.916Z,409.92
2019-03-20T09:59:27.191Z,410.20
2019-03-20T10:00:27.536Z,409.77
2019-03-20T10:01:27.984Z,409.91
2019-03-20T10:02:28.148Z,410.29
2019-03-20T10:03:28.463Z,410.17
2019-03-20T10:04:28.762Z,409.89
2019-03-20T10:05:29.094Z,410.16
2019-03-20T10:06:30.243Z,409.80
2019-03-20T10:07:29.728Z,410.03
2019-03-20T10:08:30.052Z,409.79
2019-03-20T10:09:30.448Z,409.85
2019-03-20T10:10:30.663Z,409.57
2019-03-20T10:11:30.999Z,409.40
2019-03-20T10:12:31.287Z,410.00
2019-03-20T10:13:31.620Z,410.03
2019-03-20T10:14:31.917Z,410.20
2019-03-20T10:15:32.215Z,409.75
2019-03-20T10:16:32.565Z,409.53
2019-03-20T10:17:32.928Z,409.79
2019-03-20T10:18:33.186Z,409.64
2019-03-20T10:19:33.498Z,409.79
2019-03-20T10:20:33.806Z,409.54
2019-03-20T10:21:34.134Z,409.35
2019-03-20T10:22:34.432Z,409.66
2019-03-20T10:23:34.779Z,409.42
2019-03-20T10:24:35.096Z,409.43
2019-03-20T10:25:43.884Z,409.37
2019-03-20T10:26:36.758Z,409.30
2019-03-20T10:27:36.033Z,409.63
2019-03-20T10:28:36.382Z,410.08
2019-03-20T10:29:36.682Z,410.26
2019-03-20T10:30:36.988Z,410.06
2019-03-20T10:31:37.347Z,409.65
2019-03-20T10:32:37.619Z,409.12
2019-03-20T10:33:37.960Z,409.34
2019-03-20T10:34:39.634Z,408.98
2019-03-20T10:35:38.571Z,409.84
2019-03-20T10:36:38.918Z,409.58
2019-03-20T10:37:39.185Z,409.25
2019-03-20T10:38:39.545Z,409.29
2019-03-20T10:39:40.078Z,409.30
2019-03-20T10:40:40.159Z,408.93
2019-03-20T10:41:40.508Z,409.08
2019-03-20T10:42:40.919Z,409.26
2019-03-20T10:43:41.089Z,409.46
2019-03-20T10:44:41.444Z,409.35
2019-03-20T10:45:41.826Z,409.10
2019-03-20T10:46:42.107Z,409.40
2019-03-20T10:47:47.031Z,409.08
2019-03-20T10:48:42.722Z,409.33
2019-03-20T10:49:43.001Z,409.37
2019-03-20T10:50:43.403Z,409.02
2019-03-20T10:51:43.706Z,409.31
2019-03-20T10:52:43.949Z,409.10
2019-03-20T10:53:44.279Z,409.19
2019-03-20T10:54:44.595Z,408.96
2019-03-20T10:55:44.896Z,409.18
2019-03-20T10:56:45.264Z,409.16
2019-03-20T10:57:45.539Z,408.89
2019-03-20T10:58:45.879Z,409.17
2019-03-20T10:59:46.172Z,409.30
2019-03-20T11:00:46.472Z,409.03
2019-03-20T11:01:46.835Z,409.03
2019-03-20T11:02:47.133Z,408.91
2019-03-20T11:03:47.443Z,409.07
2019-03-20T11:04:47.781Z,409.10
2019-03-20T11:05:48.083Z,409.05
2019-03-20T11:06:48.467Z,409.11
2019-03-20T11:07:48.738Z,408.97
2019-03-20T11:08:49.027Z,409.14
2019-03-20T11:09:49.357Z,409.29
2019-03-20T11:10:49.650Z,409.02
2019-03-20T11:11:50.007Z,409.27
2019-03-20T11:12:50.283Z,409.36
2019-03-20T11:13:50.620Z,409.08
2019-03-20T11:14:50.939Z,408.83
2019-03-20T11:15:51.378Z,408.77
2019-03-20T11:16:51.566Z,408.73
2019-03-20T11:17:51.859Z,409.21
2019-03-20T11:18:52.179Z,409.10
2019-03-20T11:19:52.514Z,408.70
2019-03-20T11:20:53.496Z,409.12
2019-03-20T11:21:53.139Z,409.12
2019-03-20T11:22:53.427Z,409.41
2019-03-20T11:23:53.842Z,409.12
2019-03-20T11:24:54.067Z,409.32
2019-03-20T11:25:54.364Z,409.27
2019-03-20T11:26:54.713Z,409.47
2019-03-20T11:27:54.993Z,409.48
2019-03-20T11:28:55.295Z,409.08
2019-03-20T11:29:55.639Z,408.96
2019-03-20T11:30:55.949Z,409.12
2019-03-20T11:31:56.300Z,409.28
2019-03-20T11:32:56.569Z,409.43
2019-03-20T11:33:56.853Z,409.25
2019-03-20T11:34:57.199Z,409.05
2019-03-20T11:35:57.498Z,409.26
2019-03-20T11:36:57.833Z,409.37
2019-03-20T11:37:58.144Z,409.33
2019-03-20T11:38:58.446Z,409.25
2019-03-20T11:39:58.795Z,408.95
2019-03-20T11:40:59.054Z,409.07
2019-03-20T11:41:59.389Z,409.13
2019-03-20T11:42:59.701Z,408.91
2019-03-20T11:44:00.014Z,409.08
2019-03-20T11:45:00.366Z,409.24
2019-03-20T11:46:00.618Z,409.30
2019-03-20T11:47:00.976Z,409.17
2019-03-20T11:48:01.304Z,409.34
2019-03-20T11:49:01.703Z,408.98
2019-03-20T11:50:01.954Z,409.01
2019-03-20T11:51:02.228Z,409.15
2019-03-20T11:52:02.575Z,409.08
2019-03-20T11:53:02.882Z,408.94
2019-03-20T11:54:03.189Z,408.68
2019-03-20T11:55:03.524Z,409.00
2019-03-20T11:56:03.825Z,408.81
2019-03-20T11:57:04.254Z,408.92
2019-03-20T11:58:04.463Z,408.78
2019-03-20T11:59:04.756Z,408.91
2019-03-20T12:00:05.091Z,408.52
2019-03-20T12:01:05.389Z,408.93
2019-03-20T12:02:05.685Z,408.80
2019-03-20T12:03:06.047Z,409.02
2019-03-20T12:04:06.353Z,408.63
2019-03-20T12:05:06.742Z,408.39
2019-03-20T12:06:06.969Z,408.90
2019-03-20T12:07:07.271Z,408.67
2019-03-20T12:08:07.629Z,408.21
2019-03-20T12:09:07.917Z,408.74
2019-03-20T12:10:08.246Z,408.75
2019-03-20T12:11:08.544Z,408.47
2019-03-20T12:12:08.860Z,408.82
2019-03-20T12:13:09.252Z,408.27
2019-03-20T12:14:09.475Z,408.96
2019-03-20T12:15:09.811Z,409.64
2019-03-20T12:16:10.110Z,409.09
2019-03-20T12:17:10.424Z,408.51
2019-03-20T12:18:10.990Z,408.25
2019-03-20T12:19:11.036Z,408.39
2019-03-20T12:20:11.383Z,408.76
2019-03-20T12:21:11.735Z,408.63
2019-03-20T12:22:12.036Z,408.18
2019-03-20T12:23:12.362Z,408.31
2019-03-20T12:24:12.645Z,408.44
2019-03-20T12:25:12.964Z,408.59
2019-03-20T12:26:13.275Z,407.93
2019-03-20T12:27:15.424Z,408.06
2019-03-20T12:28:14.286Z,407.95
2019-03-20T12:29:14.238Z,408.14
2019-03-20T12:30:14.675Z,408.05
2019-03-20T12:31:14.851Z,408.16
2019-03-20T12:32:15.167Z,408.18